Time;durP1;ratioP1;P1;durP2;ratioP2;P2;SDS_P1;SDS_P2;PMS_P1;PMS_P2;Temp;Humidity;BMP_temperature;BMP_pressure;BME280_temperature;BME280_humidity;BME280_pressure;Samples;Min_cycle;Max_cycle;Signal;HPM_P1;HPM_P2
2023/06/07 00:00:36;;;;;;;3.38;2.55;;;;;;;17.03;88.53;98508.56;5029712;28;20213;-57
2023/06/07 00:03:06;;;;;;;4.80;2.95;;;;;;;16.72;88.74;98482.81;5009940;28;20190;-57
2023/06/07 00:05:31;;;;;;;5.03;2.78;;;;;;;16.72;89.23;98483.63;5009859;28;20186;-57
2023/06/07 00:07:57;;;;;;;3.42;2.70;;;;;;;16.72;88.87;98488.03;4970836;28;20188;-57
2023/06/07 00:10:22;;;;;;;3.42;2.70;;;;;;;16.75;90.01;98514.72;4970845;28;20279;-57
2023/06/07 00:12:47;;;;;;;3.20;2.85;;;;;;;16.55;90.22;98480.94;4951472;29;20192;-57
2023/06/07 00:15:13;;;;;;;4.45;2.88;;;;;;;16.43;91.72;98489.88;4951555;29;20275;-57
2023/06/07 00:17:40;;;;;;;7.13;3.45;;;;;;;16.31;91.83;98498.78;4966001;28;20203;-57
2023/06/07 00:20:08;;;;;;;4.78;3.10;;;;;;;16.14;92.60;98476.81;4970662;28;20218;-57
2023/06/07 00:22:34;;;;;;;3.78;3.20;;;;;;;16.24;92.54;98495.06;4970753;28;20330;-57
2023/06/07 00:25:00;;;;;;;3.17;2.90;;;;;;;16.39;89.98;98496.34;4970794;28;20184;-57
2023/06/07 00:27:26;;;;;;;3.75;3.45;;;;;;;16.34;90.62;98495.91;4970698;28;20202;-57
2023/06/07 00:29:51;;;;;;;3.40;3.10;;;;;;;16.22;92.09;98494.41;4970622;28;20196;-57
2023/06/07 00:32:17;;;;;;;3.35;2.97;;;;;;;16.13;93.01;98484.78;4970754;28;20287;-57
2023/06/07 00:34:42;;;;;;;6.45;3.25;;;;;;;16.13;93.29;98503.03;4970857;28;20670;-57
2023/06/07 00:37:07;;;;;;;3.05;2.83;;;;;;;16.14;93.74;98499.47;4970667;28;20199;-57
2023/06/07 00:39:33;;;;;;;3.35;3.05;;;;;;;15.93;94.65;98483.13;4990245;28;20298;-58
2023/06/07 00:41:58;;;;;;;3.95;2.72;;;;;;;15.78;96.64;98479.25;5029310;28;20202;-58
2023/06/07 00:44:24;;;;;;;3.10;2.80;;;;;;;15.82;97.37;98485.88;5061325;28;20315;-57
2023/06/07 00:46:51;;;;;;;3.88;2.83;;;;;;;15.96;96.39;98488.91;5071612;28;20177;-57
2023/06/07 00:49:17;;;;;;;3.53;2.80;;;;;;;16.01;96.03;98501.53;5071583;28;20177;-57
2023/06/07 00:51:44;;;;;;;5.00;2.88;;;;;;;16.04;96.43;98501.28;5071587;28;20538;-57
2023/06/07 00:54:10;;;;;;;3.22;2.92;;;;;;;15.76;97.47;98492.47;5072194;28;20188;-57
2023/06/07 00:56:36;;;;;;;3.78;2.97;;;;;;;15.81;97.16;98486.81;5075114;28;20192;-57
2023/06/07 00:59:03;;;;;;;7.72;2.97;;;;;;;15.59;99.01;98461.81;5075155;28;20238;-57
2023/06/07 01:01:29;;;;;;;3.95;3.13;;;;;;;15.41;100.00;98457.38;5074994;28;20212;-57
2023/06/07 01:03:54;;;;;;;5.15;2.88;;;;;;;15.50;100.00;98500.88;5074925;28;20666;-57
2023/06/07 01:06:22;;;;;;;3.22;2.92;;;;;;;15.31;100.00;98483.38;5032871;28;20289;-57
2023/06/07 01:08:49;;;;;;;3.25;2.88;;;;;;;15.21;100.00;98490.34;4992813;28;20195;-58
2023/06/07 01:11:15;;;;;;;3.28;2.97;;;;;;;15.16;100.00;98492.53;4993217;28;20253;-58
2023/06/07 01:13:42;;;;;;;3.10;2.72;;;;;;;15.15;100.00;98461.38;4993055;28;20738;-57
2023/06/07 01:16:08;;;;;;;3.33;2.88;;;;;;;15.26;100.00;98488.16;4993153;28;20271;-57
2023/06/07 01:18:34;;;;;;;3.50;3.13;;;;;;;15.16;100.00;98486.50;4993146;28;20219;-57
2023/06/07 01:21:02;;;;;;;2.88;2.67;;;;;;;15.11;100.00;98486.06;4993035;28;20230;-57
2023/06/07 01:23:31;;;;;;;3.75;2.80;;;;;;;15.11;100.00;98475.63;4992881;28;20230;-57
2023/06/07 01:25:58;;;;;;;3.25;2.95;;;;;;;14.90;100.00;98478.28;4992897;28;20219;-57
2023/06/07 01:28:26;;;;;;;3.40;3.10;;;;;;;14.99;100.00;98485.31;4992831;28;20234;-57
2023/06/07 01:30:55;;;;;;;3.30;3.00;;;;;;;15.12;100.00;98480.72;4992778;28;20713;-57
2023/06/07 01:33:22;;;;;;;4.97;3.30;;;;;;;15.15;100.00;98495.25;4992819;28;20182;-57
2023/06/07 01:35:50;;;;;;;4.15;3.00;;;;;;;15.15;100.00;98490.03;4993100;28;20251;-57
2023/06/07 01:38:19;;;;;;;3.25;2.95;;;;;;;15.14;100.00;98493.59;4992703;28;20192;-57
2023/06/07 01:40:45;;;;;;;3.30;3.00;;;;;;;14.95;100.00;98480.50;5010220;28;20221;-57
2023/06/07 01:43:11;;;;;;;3.90;3.50;;;;;;;14.98;100.00;98488.06;5022617;28;20568;-57
2023/06/07 01:45:37;;;;;;;3.10;2.80;;;;;;;14.86;100.00;98470.84;5052141;28;20770;-57
2023/06/07 01:48:03;;;;;;;4.00;3.20;;;;;;;14.95;100.00;98477.88;5051880;28;20264;-56
2023/06/07 01:50:29;;;;;;;3.42;3.13;;;;;;;15.04;100.00;98495.38;5057141;28;20270;-57
2023/06/07 01:52:54;;;;;;;3.33;2.83;;;;;;;14.86;100.00;98476.06;5074118;28;20694;-57
2023/06/07 01:55:21;;;;;;;4.07;2.80;;;;;;;15.04;100.00;98471.91;5074119;28;20173;-57
2023/06/07 01:58:12;;;;;;;3.53;3.03;;;;;;;14.91;100.00;98476.50;5011819;28;20278;-57
2023/06/07 02:00:47;;;;;;;3.53;2.92;;;;;;;14.96;100.00;98495.16;5011939;28;20823;-57
2023/06/07 02:03:20;;;;;;;6.05;3.83;;;;;;;14.78;100.00;98488.91;5011950;28;20269;-57
2023/06/07 02:05:52;;;;;;;6.35;3.33;;;;;;;14.86;100.00;98486.47;5010719;28;20181;-57
2023/06/07 02:08:43;;;;;;;3.28;2.88;;;;;;;14.99;100.00;98495.72;5011770;28;20171;-57
2023/06/07 02:11:10;;;;;;;5.05;2.83;;;;;;;14.73;100.00;98488.47;5011618;28;20647;-57
2023/06/07 02:13:41;;;;;;;3.38;3.08;;;;;;;14.56;100.00;98471.66;5011712;28;20273;-57
2023/06/07 02:16:07;;;;;;;3.33;3.03;;;;;;;14.37;100.00;98481.13;4972606;28;20189;-57
2023/06/07 02:18:37;;;;;;;4.03;2.95;;;;;;;14.36;100.00;98469.06;4972667;28;20321;-57
2023/06/07 02:21:03;;;;;;;4.05;3.10;;;;;;;14.44;100.00;98484.88;4972428;28;20307;-57
2023/06/07 02:23:28;;;;;;;4.00;3.60;;;;;;;14.55;100.00;98475.22;4972506;28;20184;-57
2023/06/07 02:25:54;;;;;;;4.20;3.15;;;;;;;14.63;100.00;98477.19;4972453;28;20568;-57
2023/06/07 02:28:19;;;;;;;4.03;2.90;;;;;;;14.56;100.00;98487.28;4972434;28;20255;-57
2023/06/07 02:30:45;;;;;;;3.67;3.38;;;;;;;14.61;100.00;98495.53;4972266;28;20214;-57
2023/06/07 02:33:13;;;;;;;4.40;3.47;;;;;;;14.36;100.00;98490.69;4972386;28;20745;-57
2023/06/07 02:35:40;;;;;;;5.63;3.17;;;;;;;14.38;100.00;98494.03;4999170;28;20226;-57
2023/06/07 02:38:06;;;;;;;6.90;3.00;;;;;;;14.44;100.00;98466.63;5011201;28;20719;-57
2023/06/07 02:40:32;;;;;;;2.63;2.42;;;;;;;14.52;100.00;98465.03;5011000;28;20179;-57
2023/06/07 02:42:58;;;;;;;3.63;3.10;;;;;;;14.51;100.00;98497.25;4991418;28;20188;-57
2023/06/07 02:45:23;;;;;;;3.75;3.30;;;;;;;14.14;100.00;98483.00;4991448;28;20195;-57
2023/06/07 02:47:50;;;;;;;3.42;3.13;;;;;;;13.84;100.00;98461.22;5038807;28;20190;-57
2023/06/07 02:50:16;;;;;;;3.53;3.17;;;;;;;13.93;100.00;98482.13;5050695;28;20177;-57
2023/06/07 02:52:44;;;;;;;4.30;3.90;;;;;;;13.94;100.00;98488.16;5051034;28;20261;-57
2023/06/07 02:55:09;;;;;;;4.70;3.55;;;;;;;14.10;100.00;98473.78;5050615;28;20216;-57
2023/06/07 02:57:35;;;;;;;3.30;3.00;;;;;;;13.98;100.00;98455.72;5050607;28;20631;-57
2023/06/07 03:00:01;;;;;;;4.25;3.78;;;;;;;14.19;100.00;98490.44;5050493;28;20205;-57
2023/06/07 03:02:27;;;;;;;4.20;3.80;;;;;;;14.16;100.00;98469.81;5050407;28;20205;-57
2023/06/07 03:04:56;;;;;;;4.85;3.88;;;;;;;14.35;100.00;98478.63;5050399;28;20747;-57
2023/06/07 03:07:22;;;;;;;3.60;3.30;;;;;;;14.55;100.00;98480.44;5050427;28;20598;-57
2023/06/07 03:09:47;;;;;;;3.83;3.53;;;;;;;14.43;100.00;98467.59;5050356;28;20691;-57
2023/06/07 03:12:13;;;;;;;4.13;3.65;;;;;;;14.27;100.00;98464.59;5050322;28;20190;-57
2023/06/07 03:14:41;;;;;;;4.45;3.45;;;;;;;14.37;100.00;98483.72;5050281;28;20189;-57
2023/06/07 03:17:08;;;;;;;4.43;3.20;;;;;;;14.46;100.00;98464.75;5049846;28;20182;-57
2023/06/07 03:19:34;;;;;;;5.70;3.28;;;;;;;14.43;100.00;98481.44;5050577;28;20208;-57
2023/06/07 03:22:00;;;;;;;3.78;3.40;;;;;;;14.51;100.00;98483.41;5071605;28;20670;-57
2023/06/07 03:24:28;;;;;;;6.60;3.10;;;;;;;14.71;100.00;98480.81;5072436;28;20226;-57
2023/06/07 03:26:54;;;;;;;3.78;3.22;;;;;;;14.90;100.00;98474.84;5030058;28;20195;-57
2023/06/07 03:29:19;;;;;;;3.25;2.95;;;;;;;14.92;100.00;98455.53;5030279;28;20219;-57
2023/06/07 03:31:44;;;;;;;3.70;3.40;;;;;;;15.25;100.00;98485.69;5030003;28;20214;-57
2023/06/07 03:34:10;;;;;;;5.03;3.35;;;;;;;15.26;100.00;98479.50;5030095;28;20310;-57
2023/06/07 03:36:36;;;;;;;4.90;3.33;;;;;;;15.08;100.00;98473.28;5030308;28;20194;-57
2023/06/07 03:39:02;;;;;;;3.20;2.90;;;;;;;15.10;100.00;98482.63;5029872;28;20595;-57
2023/06/07 03:41:28;;;;;;;4.30;3.00;;;;;;;15.23;100.00;98482.41;5029828;28;20284;-57
2023/06/07 03:43:53;;;;;;;5.05;2.97;;;;;;;15.14;100.00;98460.56;5030003;28;20767;-57
2023/06/07 03:46:18;;;;;;;3.33;3.03;;;;;;;15.46;100.00;98481.28;5029924;28;20190;-57
2023/06/07 03:48:44;;;;;;;3.30;3.10;;;;;;;15.58;100.00;98483.63;5029907;28;20194;-57
2023/06/07 03:51:09;;;;;;;4.15;3.63;;;;;;;15.51;100.00;98473.88;5029882;28;20636;-57
2023/06/07 03:53:35;;;;;;;3.95;2.92;;;;;;;15.67;100.00;98481.97;5029839;28;20186;-57
2023/06/07 03:56:01;;;;;;;4.50;3.25;;;;;;;15.65;100.00;98463.88;5029905;28;20261;-57
2023/06/07 03:58:27;;;;;;;7.72;3.20;;;;;;;15.67;100.00;98461.94;4990323;28;20306;-57
2023/06/07 04:00:53;;;;;;;3.45;2.58;;;;;;;15.91;99.81;98485.06;4990395;28;20219;-57
2023/06/07 04:03:24;;;;;;;4.03;3.28;;;;;;;15.93;98.66;98485.75;4951827;29;20187;-57
2023/06/07 04:05:52;;;;;;;3.60;2.80;;;;;;;16.06;97.92;98489.75;4951689;29;20201;-57
2023/06/07 04:08:17;;;;;;;3.15;2.67;;;;;;;16.14;97.30;98496.84;4951728;29;20189;-57
2023/06/07 04:10:43;;;;;;;3.30;3.00;;;;;;;16.02;97.06;98457.03;4966854;28;20613;-57
2023/06/07 04:13:09;;;;;;;4.75;3.38;;;;;;;16.03;97.15;98458.66;4971005;28;20226;-57
2023/06/07 04:15:34;;;;;;;3.53;2.95;;;;;;;16.31;98.57;98478.72;4951564;29;20247;-57
2023/06/07 04:18:00;;;;;;;3.45;2.92;;;;;;;16.20;98.80;98462.41;4951574;28;20238;-57
2023/06/07 04:20:26;;;;;;;3.88;2.80;;;;;;;16.44;97.32;98478.47;4951552;29;20193;-57
2023/06/07 04:22:52;;;;;;;4.15;3.78;;;;;;;16.53;96.88;98485.47;4932325;29;20189;-57
2023/06/07 04:25:21;;;;;;;4.28;2.88;;;;;;;16.58;94.94;98478.88;4932449;29;20200;-57
2023/06/07 04:27:48;;;;;;;3.13;2.92;;;;;;;16.67;93.69;98474.59;4913318;29;20201;-57
2023/06/07 04:30:15;;;;;;;4.45;3.60;;;;;;;16.84;92.88;98494.78;4915564;29;20216;-57
2023/06/07 04:32:43;;;;;;;3.60;3.30;;;;;;;16.80;93.30;98475.09;4917117;29;20194;-57
2023/06/07 04:35:09;;;;;;;3.58;3.25;;;;;;;17.05;91.96;98500.59;4940984;28;20651;-57
2023/06/07 04:37:34;;;;;;;5.90;3.05;;;;;;;17.19;91.56;98498.34;4974534;28;20212;-57
2023/06/07 04:40:00;;;;;;;7.43;3.53;;;;;;;17.19;90.01;98476.63;4974471;28;20733;-57
2023/06/07 04:42:27;;;;;;;6.32;3.63;;;;;;;17.45;89.70;98485.44;4974304;28;20215;-57
2023/06/07 04:44:53;;;;;;;3.88;3.35;;;;;;;17.73;89.08;98508.81;4974344;28;20188;-57
2023/06/07 04:47:18;;;;;;;3.63;2.95;;;;;;;17.73;86.18;98481.84;4987219;28;20191;-57
2023/06/07 04:49:44;;;;;;;6.30;3.30;;;;;;;17.75;85.93;98479.91;4993762;28;20676;-57
2023/06/07 04:52:12;;;;;;;3.90;3.00;;;;;;;17.83;86.06;98495.72;4993730;28;20183;-57
2023/06/07 04:54:38;;;;;;;4.70;3.22;;;;;;;18.04;85.44;98511.94;5025887;28;20711;-57
2023/06/07 04:57:06;;;;;;;3.72;2.92;;;;;;;18.12;83.66;98509.41;5032972;28;20174;-58
2023/06/07 04:59:34;;;;;;;4.20;3.22;;;;;;;18.17;83.69;98512.38;5067346;28;20192;-57
2023/06/07 05:02:01;;;;;;;3.45;3.15;;;;;;;18.19;84.22;98513.88;5075011;28;20204;-57
2023/06/07 05:04:27;;;;;;;6.97;2.63;;;;;;;18.14;83.69;98502.22;5075146;28;20173;-57
2023/06/07 05:06:58;;;;;;;3.78;2.70;;;;;;;18.21;83.86;98516.34;5074805;28;20173;-57
2023/06/07 05:09:24;;;;;;;3.58;3.15;;;;;;;18.07;85.27;98509.03;5075430;28;20164;-57
2023/06/07 05:11:49;;;;;;;4.97;3.42;;;;;;;17.72;87.06;98482.81;5074879;28;20262;-57
2023/06/07 05:14:15;;;;;;;3.92;3.05;;;;;;;17.84;88.50;98513.06;5074898;28;20255;-57
2023/06/07 05:16:43;;;;;;;4.20;3.60;;;;;;;17.94;86.91;98495.47;5074903;28;20237;-57
2023/06/07 05:19:08;;;;;;;3.65;2.95;;;;;;;18.24;85.99;98503.78;5032459;28;20323;-57
2023/06/07 05:21:35;;;;;;;3.80;3.40;;;;;;;18.34;86.42;98506.34;5032442;28;20248;-57
2023/06/07 05:24:01;;;;;;;8.63;5.18;;;;;;;18.45;86.66;98506.97;5032584;28;20674;-57
2023/06/07 05:26:26;;;;;;;7.93;5.75;;;;;;;18.43;87.30;98493.16;5032456;28;20174;-57
2023/06/07 05:28:52;;;;;;;8.75;4.70;;;;;;;18.63;87.03;98520.00;5032300;28;20194;-57
2023/06/07 05:31:18;;;;;;;6.97;4.93;;;;;;;18.67;86.20;98516.97;5032258;28;20223;-57
2023/06/07 05:33:44;;;;;;;12.43;8.25;;;;;;;18.71;92.79;98513.03;5032309;28;20565;-57
2023/06/07 05:36:11;;;;;;;15.52;7.72;;;;;;;18.72;94.42;98501.56;5032229;28;20185;-57
2023/06/07 05:38:37;;;;;;;15.18;8.55;;;;;;;18.71;97.16;98497.31;5032187;28;20190;-57
2023/06/07 05:41:02;;;;;;;22.08;9.55;;;;;;;18.61;100.00;98499.22;5031866;28;20209;-56
2023/06/07 05:43:28;;;;;;;16.08;9.75;;;;;;;18.56;100.00;98498.00;5032116;28;20186;-56
2023/06/07 05:45:53;;;;;;;19.45;9.88;;;;;;;18.68;100.00;98512.53;5032068;28;20189;-56
2023/06/07 05:48:19;;;;;;;17.52;10.07;;;;;;;18.62;100.00;98497.41;5032018;28;20557;-56
2023/06/07 05:50:45;;;;;;;14.35;9.55;;;;;;;18.78;100.00;98494.91;5064077;28;20199;-56
2023/06/07 05:53:11;;;;;;;17.42;9.50;;;;;;;18.97;100.00;98489.44;5074216;28;20176;-56
2023/06/07 05:55:36;;;;;;;15.98;9.95;;;;;;;18.99;100.00;98511.09;5074189;28;20182;-56
2023/06/07 05:58:03;;;;;;;14.77;10.07;;;;;;;18.94;100.00;98508.13;5073894;28;20536;-56
2023/06/07 06:00:29;;;;;;;15.85;9.45;;;;;;;18.82;100.00;98515.41;5074069;28;20168;-56
2023/06/07 06:02:54;;;;;;;24.58;9.68;;;;;;;19.05;100.00;98511.28;5074059;28;20176;-56
2023/06/07 06:05:21;;;;;;;18.30;11.13;;;;;;;19.34;100.00;98521.47;5074346;28;20264;-56
2023/06/07 06:07:46;;;;;;;18.10;10.73;;;;;;;19.55;98.75;98512.25;5051460;28;20189;-57
2023/06/07 06:10:12;;;;;;;14.07;10.02;;;;;;;19.63;98.06;98522.75;5051656;28;20181;-56
2023/06/07 06:12:38;;;;;;;20.35;9.57;;;;;;;19.72;95.66;98520.97;5051434;28;20606;-56
2023/06/07 06:15:03;;;;;;;14.25;9.27;;;;;;;19.28;98.74;98498.47;5051547;28;20642;-56
2023/06/07 06:17:30;;;;;;;17.33;9.70;;;;;;;19.39;98.23;98513.94;5051364;28;20197;-56
2023/06/07 06:19:55;;;;;;;14.73;8.43;;;;;;;19.03;97.78;98496.69;5051371;28;20180;-56
2023/06/07 06:22:21;;;;;;;10.32;8.98;;;;;;;19.01;99.71;98519.63;5051319;28;20220;-56
2023/06/07 06:24:46;;;;;;;11.63;9.50;;;;;;;18.86;100.00;98521.16;5051197;28;20662;-56
2023/06/07 06:27:12;;;;;;;14.38;9.10;;;;;;;18.82;100.00;98504.91;5051192;28;20193;-56
2023/06/07 06:29:38;;;;;;;12.43;8.80;;;;;;;19.06;100.00;98512.13;5050977;28;20181;-56
2023/06/07 06:32:04;;;;;;;11.02;7.95;;;;;;;19.15;100.00;98493.66;5051154;28;20181;-56
2023/06/07 06:34:29;;;;;;;15.98;8.13;;;;;;;19.37;99.05;98511.50;5051032;28;20686;-56
2023/06/07 06:36:57;;;;;;;10.80;7.78;;;;;;;19.63;97.03;98527.16;5011172;28;20187;-56
2023/06/07 06:39:23;;;;;;;9.82;8.07;;;;;;;19.51;96.13;98515.31;5026201;28;20315;-56
2023/06/07 06:41:49;;;;;;;11.68;7.50;;;;;;;19.50;95.24;98513.69;4991454;28;20219;-56
2023/06/07 06:44:14;;;;;;;13.82;7.72;;;;;;;19.56;94.83;98513.88;4991670;28;20179;-56
2023/06/07 06:46:40;;;;;;;9.50;7.40;;;;;;;19.57;95.18;98525.19;4991618;28;20782;-56
2023/06/07 06:49:05;;;;;;;8.70;7.32;;;;;;;19.55;96.16;98514.88;4991570;28;20192;-56
2023/06/07 06:51:31;;;;;;;13.95;8.25;;;;;;;19.35;97.02;98510.03;4991097;28;20199;-57
2023/06/07 06:53:56;;;;;;;11.75;8.50;;;;;;;19.39;95.84;98524.44;4991181;28;20191;-57
2023/06/07 06:56:22;;;;;;;10.82;7.47;;;;;;;19.28;97.12;98519.47;4991369;28;20187;-56
2023/06/07 06:58:47;;;;;;;8.82;7.15;;;;;;;19.22;98.25;98522.72;4991408;28;20819;-56
2023/06/07 07:01:16;;;;;;;11.05;7.20;;;;;;;19.14;98.43;98506.91;4991250;28;20275;-56
2023/06/07 07:03:42;;;;;;;8.90;6.85;;;;;;;19.31;98.69;98524.41;4991250;28;20190;-56
2023/06/07 07:06:07;;;;;;;10.50;7.57;;;;;;;19.55;97.67;98524.53;4991113;28;20191;-56
2023/06/07 07:08:35;;;;;;;14.00;7.13;;;;;;;19.66;96.57;98505.88;5021507;28;20603;-56
2023/06/07 07:11:01;;;;;;;8.55;7.38;;;;;;;19.70;95.18;98499.31;5030471;28;20276;-56
2023/06/07 07:13:26;;;;;;;9.15;6.72;;;;;;;20.08;93.75;98507.50;5062548;28;20252;-56
2023/06/07 07:15:52;;;;;;;11.30;7.55;;;;;;;20.40;91.30;98522.47;5072646;28;20172;-56
2023/06/07 07:18:17;;;;;;;8.38;6.80;;;;;;;20.59;87.34;98522.13;5072548;28;20177;-56
2023/06/07 07:20:42;;;;;;;7.47;6.75;;;;;;;20.38;87.54;98527.88;5072782;28;20527;-56
2023/06/07 07:23:08;;;;;;;13.02;7.20;;;;;;;20.04;89.73;98521.09;5072493;28;20204;-56
2023/06/07 07:25:34;;;;;;;12.45;7.13;;;;;;;20.10;88.97;98499.44;5072475;28;20187;-56
2023/06/07 07:27:59;;;;;;;10.02;6.85;;;;;;;20.49;87.16;98517.06;5072408;28;20172;-56
2023/06/07 07:30:25;;;;;;;9.88;6.32;;;;;;;20.73;85.35;98529.34;5072379;28;20246;-56
2023/06/07 07:32:50;;;;;;;8.40;6.70;;;;;;;20.87;83.77;98516.34;5072406;28;20176;-56
2023/06/07 07:35:16;;;;;;;10.48;6.05;;;;;;;20.97;83.52;98527.56;5072126;28;20187;-56
2023/06/07 07:37:41;;;;;;;10.70;6.63;;;;;;;21.08;81.31;98534.28;5072406;28;20251;-56
2023/06/07 07:40:12;;;;;;;7.18;5.95;;;;;;;20.72;82.74;98509.31;5072286;28;20618;-56
2023/06/07 07:42:37;;;;;;;7.80;5.97;;;;;;;20.65;83.94;98534.63;5072181;28;20196;-56
2023/06/07 07:45:03;;;;;;;8.43;7.40;;;;;;;20.17;86.66;98518.84;5072195;28;20181;-56
2023/06/07 07:47:29;;;;;;;9.77;6.63;;;;;;;20.23;87.05;98512.94;5072232;28;20164;-56
2023/06/07 07:49:55;;;;;;;8.43;6.28;;;;;;;20.25;86.63;98510.94;5072020;28;20215;-56
2023/06/07 07:52:21;;;;;;;7.03;6.32;;;;;;;20.12;87.43;98497.47;5072192;28;20187;-56
2023/06/07 07:54:47;;;;;;;12.27;7.40;;;;;;;19.95;88.46;98490.50;5072213;28;20177;-56
2023/06/07 07:57:12;;;;;;;10.38;6.22;;;;;;;20.14;87.15;98519.13;5029798;28;20240;-56
2023/06/07 07:59:38;;;;;;;9.93;6.65;;;;;;;19.93;87.93;98508.25;5029874;28;20189;-56
2023/06/07 08:02:03;;;;;;;13.55;7.07;;;;;;;20.08;86.98;98506.66;5029716;28;20205;-56
2023/06/07 08:04:29;;;;;;;8.07;6.25;;;;;;;20.32;86.35;98530.31;5032910;28;20247;-56
2023/06/07 08:06:55;;;;;;;8.93;6.05;;;;;;;20.32;84.17;98522.44;5033966;28;20274;-56
2023/06/07 08:09:20;;;;;;;7.30;5.78;;;;;;;20.19;86.24;98501.09;5033934;28;20190;-56
2023/06/07 08:11:47;;;;;;;6.70;5.93;;;;;;;20.27;85.25;98498.47;5033720;28;20189;-56
2023/06/07 08:14:13;;;;;;;7.63;6.88;;;;;;;20.50;84.43;98491.56;5033755;28;20204;-57
2023/06/07 08:16:38;;;;;;;8.60;5.93;;;;;;;20.77;81.51;98488.59;5033749;28;20659;-56
2023/06/07 08:19:06;;;;;;;12.68;6.93;;;;;;;20.85;80.37;98513.06;5033672;28;20188;-56
2023/06/07 08:21:33;;;;;;;8.00;5.70;;;;;;;20.99;79.88;98498.44;5033585;28;20229;-57
2023/06/07 08:23:59;;;;;;;9.10;5.53;;;;;;;21.00;78.52;98515.88;4994029;28;20190;-57
2023/06/07 08:26:25;;;;;;;5.85;5.13;;;;;;;20.63;79.52;98503.22;4955233;29;20185;-57
2023/06/07 08:28:50;;;;;;;6.95;5.10;;;;;;;20.89;79.33;98497.81;4970141;28;20199;-57
2023/06/07 08:31:17;;;;;;;6.45;5.10;;;;;;;21.25;79.07;98509.56;4974468;28;20211;-57
2023/06/07 08:33:43;;;;;;;6.50;4.93;;;;;;;21.28;78.09;98482.91;4974614;28;20635;-57
2023/06/07 08:36:08;;;;;;;6.40;4.80;;;;;;;21.24;79.98;98510.56;4974554;28;20219;-57
2023/06/07 08:38:34;;;;;;;10.32;5.43;;;;;;;21.19;79.74;98512.88;4974557;28;20192;-57
2023/06/07 08:41:00;;;;;;;6.53;5.63;;;;;;;21.26;79.42;98495.41;4974356;28;20242;-57
2023/06/07 08:43:25;;;;;;;7.47;5.35;;;;;;;21.36;80.11;98499.50;4974340;28;20284;-57
2023/06/07 08:45:51;;;;;;;7.28;5.18;;;;;;;21.21;79.92;98485.38;4974317;28;20565;-57
2023/06/07 08:48:17;;;;;;;10.90;6.70;;;;;;;21.22;81.02;98486.22;4974348;28;20782;-57
2023/06/07 08:50:46;;;;;;;9.55;5.60;;;;;;;21.58;80.17;98501.38;4935687;29;20301;-57
2023/06/07 08:53:13;;;;;;;5.78;5.25;;;;;;;21.85;79.27;98502.75;4935793;29;20688;-57
2023/06/07 08:55:39;;;;;;;6.10;5.22;;;;;;;21.99;77.36;98488.84;4981742;28;20265;-57
2023/06/07 08:58:07;;;;;;;5.88;5.28;;;;;;;22.25;76.71;98494.59;5013284;28;20683;-57
2023/06/07 09:00:33;;;;;;;8.00;4.88;;;;;;;22.48;74.33;98505.97;5013161;28;20640;-57
2023/06/07 09:02:58;;;;;;;10.15;5.40;;;;;;;22.49;73.40;98484.69;5013150;28;20293;-57
2023/06/07 09:05:24;;;;;;;9.35;5.20;;;;;;;22.71;72.66;98490.94;5013176;28;20218;-57
2023/06/07 09:07:50;;;;;;;7.45;5.25;;;;;;;22.72;72.47;98508.41;5013171;28;20179;-61
2023/06/07 09:10:17;;;;;;;6.32;5.72;;;;;;;22.26;74.67;98490.97;5013064;28;20182;-57
2023/06/07 09:12:46;;;;;;;7.45;5.18;;;;;;;22.17;74.43;98486.72;5012949;28;20212;-57
2023/06/07 09:15:19;;;;;;;5.53;5.07;;;;;;;22.56;74.35;98498.81;5012195;28;20216;-57
2023/06/07 09:17:56;;;;;;;7.82;5.97;;;;;;;22.58;72.53;98485.44;5012912;28;20189;-57
2023/06/07 09:20:26;;;;;;;9.82;5.85;;;;;;;22.85;72.31;98487.50;5012921;28;20560;-56
2023/06/07 09:23:01;;;;;;;5.65;5.10;;;;;;;22.95;72.47;98469.59;5012690;28;20225;-56
2023/06/07 09:25:28;;;;;;;7.07;5.20;;;;;;;23.13;70.26;98491.97;5012709;28;20178;-57
2023/06/07 09:27:54;;;;;;;6.50;5.25;;;;;;;23.21;69.91;98496.41;5028638;28;20292;-57
2023/06/07 09:30:21;;;;;;;5.90;5.30;;;;;;;23.17;70.37;98489.81;5052214;28;20232;-57
2023/06/07 09:32:46;;;;;;;7.78;5.30;;;;;;;23.13;70.47;98476.13;5052593;28;20683;-57
2023/06/07 09:35:14;;;;;;;5.47;4.90;;;;;;;23.22;69.69;98487.47;5052236;28;20268;-57
2023/06/07 09:37:44;;;;;;;8.48;5.25;;;;;;;22.65;70.47;98465.25;5052057;28;20275;-56
2023/06/07 09:40:10;;;;;;;5.15;4.45;;;;;;;22.50;70.84;98461.78;5052274;28;20219;-58
2023/06/07 09:42:36;;;;;;;5.72;5.22;;;;;;;22.61;70.82;98485.09;5051971;28;20213;-57
2023/06/07 09:45:15;;;;;;;6.05;5.30;;;;;;;22.70;69.04;98462.91;5052178;28;20215;-57
2023/06/07 09:47:42;;;;;;;5.78;4.30;;;;;;;22.90;64.78;98474.59;5052058;28;20259;-58
2023/06/07 09:50:11;;;;;;;4.93;4.00;;;;;;;22.89;65.32;98470.31;5051863;28;20242;-57
2023/06/07 09:52:37;;;;;;;7.43;4.10;;;;;;;23.00;64.45;98456.66;5051875;28;20197;-57
2023/06/07 09:55:06;;;;;;;7.93;4.22;;;;;;;23.25;65.46;98458.06;5051951;28;20185;-58
2023/06/07 09:57:37;;;;;;;6.97;4.72;;;;;;;23.38;64.82;98474.06;5060679;28;20241;-58
2023/06/07 10:00:14;;;;;;;7.25;4.60;;;;;;;23.38;64.86;98484.66;5074276;28;20204;-58
2023/06/07 10:02:46;;;;;;;5.10;4.65;;;;;;;23.31;65.13;98471.34;5074019;28;20200;-57
2023/06/07 10:05:13;;;;;;;6.43;4.30;;;;;;;23.51;64.01;98483.00;5074140;28;20160;-58
2023/06/07 10:07:50;;;;;;;7.85;4.35;;;;;;;23.45;64.01;98469.69;5073890;28;20180;-58
2023/06/07 10:10:18;;;;;;;8.45;4.82;;;;;;;23.45;63.96;98454.69;5074243;28;20674;-57
2023/06/07 10:12:46;;;;;;;4.32;4.00;;;;;;;23.68;62.61;98476.50;5073510;28;20181;-57
2023/06/07 10:15:20;;;;;;;5.45;4.40;;;;;;;23.83;62.01;98456.94;5073847;28;20165;-58
2023/06/07 10:17:55;;;;;;;6.43;4.03;;;;;;;24.00;60.02;98475.25;5073851;28;20260;-57
2023/06/07 10:20:35;;;;;;;8.40;4.75;;;;;;;23.98;60.09;98463.03;5073731;28;20183;-57
2023/06/07 10:23:06;;;;;;;4.97;3.97;;;;;;;24.31;60.39;98474.75;5011465;28;20597;-57
2023/06/07 10:25:41;;;;;;;4.43;4.03;;;;;;;24.56;56.87;98461.94;5011656;28;20186;-58
2023/06/07 10:28:32;;;;;;;6.70;4.03;;;;;;;24.68;55.51;98477.13;5010617;28;20241;-57
2023/06/07 10:31:05;;;;;;;5.30;3.80;;;;;;;24.84;53.43;98471.56;5011394;28;20199;-58
2023/06/07 10:33:35;;;;;;;4.80;3.55;;;;;;;24.88;52.91;98443.69;5011479;28;20249;-55
2023/06/07 10:36:01;;;;;;;4.78;3.38;;;;;;;24.81;52.55;98469.31;5011438;28;20182;-55
2023/06/07 10:38:29;;;;;;;3.63;3.20;;;;;;;24.80;52.89;98467.66;5011456;28;20558;-55
2023/06/07 10:40:57;;;;;;;5.88;3.92;;;;;;;25.00;53.19;98462.47;5011303;28;20641;-56
2023/06/07 10:43:27;;;;;;;4.28;3.72;;;;;;;24.94;51.74;98458.78;5011283;28;20186;-57
2023/06/07 10:46:18;;;;;;;4.28;3.88;;;;;;;24.75;53.00;98464.78;5011254;28;20190;-57
2023/06/07 10:48:45;;;;;;;10.60;4.00;;;;;;;24.81;53.65;98455.25;5011146;28;20187;-58
2023/06/07 10:51:11;;;;;;;5.28;3.40;;;;;;;24.98;52.52;98467.16;5011186;28;20668;-57
2023/06/07 10:53:53;;;;;;;5.13;3.50;;;;;;;25.13;51.96;98471.34;5032229;28;20177;-58
2023/06/07 10:56:34;;;;;;;5.43;3.65;;;;;;;25.23;51.07;98471.81;5073037;28;20179;-58
2023/06/07 10:59:15;;;;;;;6.13;4.15;;;;;;;25.49;50.29;98469.31;5072976;28;20169;-57
2023/06/07 11:01:46;;;;;;;4.45;3.47;;;;;;;25.33;50.79;98460.88;5072834;28;20246;-57
2023/06/07 11:04:39;;;;;;;3.90;3.55;;;;;;;25.71;49.33;98460.22;5072869;28;20169;-57
2023/06/07 11:07:14;;;;;;;6.15;3.35;;;;;;;25.63;49.84;98454.28;5072894;28;20191;-57
2023/06/07 11:09:40;;;;;;;6.82;4.00;;;;;;;25.56;50.85;98432.22;5072809;28;20237;-57
2023/06/07 11:12:06;;;;;;;6.72;3.63;;;;;;;25.75;49.32;98448.22;5072743;28;20645;-58
2023/06/07 11:14:31;;;;;;;5.68;3.60;;;;;;;25.33;50.59;98434.38;5072677;28;20176;-57
2023/06/07 11:16:56;;;;;;;3.97;3.67;;;;;;;25.45;50.52;98423.03;5072694;28;20582;-57
2023/06/07 11:19:22;;;;;;;5.72;4.10;;;;;;;25.79;50.41;98448.63;5072857;28;20169;-57
2023/06/07 11:21:53;;;;;;;4.57;4.10;;;;;;;25.73;49.67;98444.91;5072513;28;20202;-58
2023/06/07 11:24:19;;;;;;;4.43;4.00;;;;;;;25.86;49.31;98439.69;5072591;28;20172;-56
2023/06/07 11:26:45;;;;;;;5.93;4.50;;;;;;;25.82;49.09;98435.78;5072208;28;20176;-57
2023/06/07 11:29:11;;;;;;;5.57;4.43;;;;;;;25.74;50.09;98422.72;5072442;28;20176;-57